Time;durP1;ratioP1;P1;durP2;ratioP2;P2;SDS_P1;SDS_P2;PMS_P1;PMS_P2;Temp;Humidity;BMP_temperature;BMP_pressure;BME280_temperature;BME280_humidity;BME280_pressure;Samples;Min_cycle;Max_cycle;Signal;HPM_P1;HPM_P2
2021/12/26 00:02:07;;;;;;;8.23;6.72;;;;;;;2.96;82.93;98858.16;4924622;29;20095;-90
2021/12/26 00:04:59;;;;;;;7.43;6.60;;;;;;;2.87;83.28;98851.78;4911094;29;20040;-91
2021/12/26 00:11:05;;;;;;;7.80;7.00;;;;;;;2.90;83.11;98846.28;4914168;29;20512;-91
2021/12/26 00:13:55;;;;;;;8.02;6.47;;;;;;;2.93;83.21;98848.69;4894488;29;20048;-91
2021/12/26 00:16:46;;;;;;;7.65;6.72;;;;;;;2.99;83.54;98842.91;4893836;29;20608;-90
2021/12/26 00:19:23;;;;;;;7.68;6.60;;;;;;;2.89;83.54;98839.31;4909057;29;20040;-91
2021/12/26 00:22:02;;;;;;;8.77;6.88;;;;;;;2.87;83.76;98848.31;4908639;29;20073;-90
2021/12/26 00:24:44;;;;;;;8.68;6.95;;;;;;;2.91;83.48;98852.38;4894663;29;20459;-90
2021/12/26 00:27:38;;;;;;;9.68;7.13;;;;;;;2.95;83.30;98846.75;4894715;29;20039;-90
2021/12/26 00:30:53;;;;;;;;;;;;;;;;;;;;;
2021/12/26 00:33:43;;;;;;;9.23;7.13;;;;;;;2.94;83.65;98838.97;4923724;29;20127;-91
2021/12/26 00:36:32;;;;;;;8.15;6.57;;;;;;;2.94;84.13;98839.78;4892526;29;20104;-90
2021/12/26 00:39:29;;;;;;;9.40;7.65;;;;;;;2.93;83.95;98842.56;4909749;29;20100;-90
2021/12/26 00:42:38;;;;;;;8.30;6.95;;;;;;;2.90;83.88;98840.16;4912252;29;20063;-90
2021/12/26 00:48:32;;;;;;;7.35;6.55;;;;;;;2.87;83.92;98833.31;4813317;29;20051;-89
2021/12/26 00:51:11;;;;;;;7.90;7.10;;;;;;;2.97;83.93;98838.72;4785005;29;20484;-90
2021/12/26 00:53:53;;;;;;;8.60;6.95;;;;;;;2.95;83.99;98841.47;4854011;29;20043;-91
2021/12/26 00:56:33;;;;;;;9.60;7.70;;;;;;;3.04;84.18;98839.94;4876912;29;20032;-91
2021/12/26 00:59:25;;;;;;;9.20;7.53;;;;;;;2.94;83.65;98838.97;4876439;29;20036;-90
2021/12/26 01:02:16;;;;;;;8.25;7.15;;;;;;;2.83;83.91;98840.59;4875787;29;20391;-91
2021/12/26 01:04:58;;;;;;;9.25;7.10;;;;;;;2.81;83.93;98839.03;4868975;29;20048;-90
2021/12/26 01:10:49;;;;;;;8.25;7.13;;;;;;;2.89;83.47;98834.03;4864911;29;20044;-90
2021/12/26 01:13:39;;;;;;;8.18;7.22;;;;;;;2.81;83.25;98834.59;4888759;29;20063;-91
2021/12/26 01:16:28;;;;;;;8.25;6.93;;;;;;;2.89;83.96;98831.38;4877800;29;20044;-91
2021/12/26 01:19:09;;;;;;;;;;;;;;;2.96;83.82;98832.59;4876269;29;20047;-92
2021/12/26 01:21:55;;;;;;;;;;;;;;;;;;;;;
2021/12/26 01:24:33;;;;;;;9.32;7.45;;;;;;;3.06;84.19;98830.94;4888065;29;20140;-90
2021/12/26 01:27:25;;;;;;;9.30;7.55;;;;;;;2.90;84.03;98827.78;4876200;29;20040;-90
2021/12/26 01:30:20;;;;;;;;;;;;;;;;;;;;;
2021/12/26 01:33:06;;;;;;;8.52;6.72;;;;;;;2.90;84.13;98830.44;4891208;29;20518;-91
2021/12/26 01:35:47;;;;;;;8.98;7.32;;;;;;;3.03;84.15;98828.53;4876594;29;20063;-90
2021/12/26 01:38:27;;;;;;;10.15;7.60;;;;;;;2.89;84.57;98827.91;4875452;29;20073;-92
2021/12/26 01:41:10;;;;;;;7.78;6.97;;;;;;;2.86;84.21;98826.34;4875348;29;20036;-90
2021/12/26 01:43:46;;;;;;;10.55;7.75;;;;;;;2.89;83.99;98823.47;4875910;29;20044;-90
2021/12/26 01:46:34;;;;;;;9.88;7.63;;;;;;;2.92;84.12;98833.78;4888179;29;20115;-90
2021/12/26 01:49:21;;;;;;;8.88;7.15;;;;;;;2.96;84.33;98826.47;4894558;29;20126;-90
2021/12/26 01:52:06;;;;;;;8.70;7.63;;;;;;;2.98;84.43;98829.84;4900706;29;20068;-90
2021/12/26 01:54:59;;;;;;;;;;;;;;;;;;;;;
2021/12/26 01:58:05;;;;;;;8.73;7.43;;;;;;;2.88;83.69;98827.06;4909183;29;20104;-92
2021/12/26 02:07:31;;;;;;;9.50;7.88;;;;;;;2.95;83.80;98824.78;4910237;29;20058;-91
2021/12/26 02:10:19;;;;;;;9.95;8.05;;;;;;;2.98;83.89;98827.19;4924463;29;20032;-91
2021/12/26 02:13:11;;;;;;;10.27;7.75;;;;;;;2.99;83.55;98821.81;4908350;29;20064;-90
2021/12/26 02:16:15;;;;;;;9.60;8.23;;;;;;;3.00;83.84;98812.06;4899425;29;20055;-91
2021/12/26 02:19:14;;;;;;;9.23;7.40;;;;;;;3.00;83.56;98814.72;4906693;29;20044;-91
2021/12/26 02:25:11;;;;;;;9.82;8.38;;;;;;;2.99;83.97;98823.59;4926069;29;20058;-91
2021/12/26 02:27:43;;;;;;;12.88;8.40;;;;;;;3.00;84.22;98814.72;4895074;29;20059;-91
2021/12/26 02:30:37;;;;;;;9.35;8.05;;;;;;;2.94;83.86;98815.19;4882673;29;20050;-93
2021/12/26 02:33:20;;;;;;;9.57;8.23;;;;;;;2.97;84.05;98814.97;4895244;29;20073;-90
2021/12/26 02:36:04;;;;;;;10.05;8.55;;;;;;;2.95;84.36;98816.88;4908353;29;20039;-91
2021/12/26 02:39:03;;;;;;;11.77;8.27;;;;;;;3.03;84.65;98822.41;4907406;29;20039;-91
2021/12/26 02:41:56;;;;;;;;;;;;;;;;;;;;;
2021/12/26 02:47:52;;;;;;;10.75;7.82;;;;;;;2.96;84.75;98814.13;4896920;29;20049;-90
2021/12/26 02:51:02;;;;;;;;;;;;;;;;;;;;;
2021/12/26 02:57:17;;;;;;;10.90;8.63;;;;;;;3.04;84.63;98803.81;4883740;29;20047;-91
2021/12/26 03:03:01;;;;;;;11.88;8.93;;;;;;;3.03;84.93;98796.00;4856537;29;20190;-91
2021/12/26 03:06:10;;;;;;;11.52;8.38;;;;;;;3.03;84.72;98799.47;4838964;29;20046;-90
2021/12/26 03:09:27;;;;;;;;;;;;;;;;;;;;;
2021/12/26 03:18:50;;;;;;;10.30;7.90;;;;;;;2.95;85.25;98786.03;4861023;29;20064;-90
2021/12/26 03:22:07;;;;;;;12.27;8.85;;;;;;;3.01;85.29;98787.34;4831940;29;20700;-91
2021/12/26 03:25:01;;;;;;;9.80;8.60;;;;;;;3.07;85.38;98795.63;4832822;29;20058;-90
2021/12/26 03:27:45;;;;;;;11.73;8.68;;;;;;;3.06;85.67;98775.47;4839222;29;20121;-91
2021/12/26 03:30:38;;;;;;;11.48;9.10;;;;;;;3.02;85.21;98781.94;4842096;29;20053;-90
2021/12/26 03:33:59;;;;;;;9.93;8.13;;;;;;;3.12;85.54;98808.47;4826034;29;20158;-91
2021/12/26 03:37:03;;;;;;;11.02;8.35;;;;;;;3.15;85.60;98811.72;4859593;29;20050;-90
2021/12/26 03:39:44;;;;;;;12.18;8.60;;;;;;;3.08;85.44;98796.47;4844538;29;20050;-90
2021/12/26 03:46:10;;;;;;;11.45;9.32;;;;;;;3.10;85.60;98805.97;4860979;29;20068;-90
2021/12/26 03:49:20;;;;;;;11.40;9.40;;;;;;;3.14;85.83;98804.75;4838460;29;20153;-90
2021/12/26 03:52:29;;;;;;;11.20;9.23;;;;;;;3.11;85.67;98799.72;4837669;29;20644;-91
2021/12/26 03:58:42;;;;;;;11.80;9.07;;;;;;;3.00;85.63;98777.75;4836955;29;20050;-89
2021/12/26 04:01:39;;;;;;;11.02;9.05;;;;;;;3.04;86.11;98787.13;4837778;29;20050;-90
2021/12/26 04:04:21;;;;;;;12.80;9.13;;;;;;;3.03;85.64;98791.56;4859707;29;20056;-90
2021/12/26 04:07:12;;;;;;;13.30;9.80;;;;;;;3.06;85.91;98780.75;4829852;29;20037;-92
2021/12/26 04:09:49;;;;;;;11.70;9.25;;;;;;;3.02;85.86;98781.94;4842776;29;20042;-91
2021/12/26 04:16:13;;;;;;;;;;;;;;;;;;;;;
2021/12/26 04:18:48;;;;;;;11.50;9.18;;;;;;;3.16;86.57;98783.50;4859736;29;20113;-92
2021/12/26 04:21:28;;;;;;;13.88;9.63;;;;;;;3.14;85.86;98780.16;4826662;29;20520;-92
2021/12/26 04:24:27;;;;;;;12.35;9.30;;;;;;;3.09;85.57;98779.66;4828501;29;20072;-90
2021/12/26 04:33:17;;;;;;;11.32;8.82;;;;;;;3.02;86.28;98773.19;4903103;29;20040;-91
2021/12/26 04:35:50;;;;;;;11.50;8.55;;;;;;;3.03;86.30;98773.06;4899456;29;20040;-90
2021/12/26 04:38:27;;;;;;;11.40;8.85;;;;;;;3.07;86.23;98771.88;4883944;29;20032;-90
2021/12/26 04:41:06;;;;;;;13.07;9.25;;;;;;;3.12;86.31;98775.00;4884547;29;20063;-91
2021/12/26 04:43:53;;;;;;;14.57;9.63;;;;;;;3.11;86.12;98778.59;4885379;29;20077;-91
2021/12/26 04:46:48;;;;;;;;;;;;;;;;;;;;;
2021/12/26 04:49:35;;;;;;;11.85;9.35;;;;;;;3.07;86.30;98786.88;4906049;29;20267;-90
2021/12/26 04:52:30;;;;;;;11.82;9.23;;;;;;;3.10;86.18;98786.63;4907181;29;20458;-91
2021/12/26 04:55:20;;;;;;;11.50;8.98;;;;;;;3.12;86.25;98785.56;4907255;29;20499;-91
2021/12/26 04:58:19;;;;;;;12.73;9.00;;;;;;;3.16;86.90;98788.78;4884256;29;20040;-91
2021/12/26 05:01:22;;;;;;;12.63;9.17;;;;;;;3.18;86.64;98781.59;4905584;29;20044;-92
2021/12/26 05:03:59;;;;;;;11.45;9.15;;;;;;;3.09;86.51;98782.31;4886536;29;20036;-90
2021/12/26 05:06:57;;;;;;;12.63;9.43;;;;;;;3.04;86.40;98780.03;4891501;29;20040;-91
2021/12/26 05:09:56;;;;;;;12.38;8.77;;;;;;;3.13;86.55;98779.31;4891128;29;20033;-89
2021/12/26 05:12:36;;;;;;;11.27;8.80;;;;;;;3.07;86.47;98777.16;4872306;29;20033;-90
2021/12/26 05:15:31;;;;;;;12.80;9.43;;;;;;;3.15;86.62;98773.91;4870854;29;20045;-90
2021/12/26 05:18:15;;;;;;;12.98;9.20;;;;;;;3.13;86.22;98760.81;4864579;29;20519;-90
2021/12/26 05:21:09;;;;;;;12.70;9.63;;;;;;;3.05;86.25;98763.22;4871829;29;20041;-91
2021/12/26 05:23:46;;;;;;;12.15;9.35;;;;;;;3.08;86.65;98763.00;4886036;29;20136;-91
2021/12/26 05:26:27;;;;;;;12.73;9.50;;;;;;;3.07;86.80;98766.59;4871223;29;20037;-90
2021/12/26 05:29:06;;;;;;;12.38;9.80;;;;;;;3.12;86.75;98772.34;4872168;29;20136;-91
2021/12/26 05:35:01;;;;;;;12.50;9.65;;;;;;;3.03;86.47;98762.50;4871123;29;20036;-91
2021/12/26 05:37:41;;;;;;;14.52;10.25;;;;;;;3.01;86.79;98755.66;4854624;29;20049;-91
2021/12/26 05:40:22;;;;;;;13.90;10.00;;;;;;;3.01;87.03;98753.88;4871196;29;20434;-90
2021/12/26 05:42:58;;;;;;;12.52;9.23;;;;;;;3.04;86.87;98752.78;4863033;29;20051;-91
2021/12/26 05:45:53;;;;;;;12.75;9.98;;;;;;;3.06;86.64;98754.34;4854306;29;20093;-91
2021/12/26 05:48:35;;;;;;;13.15;9.48;;;;;;;3.12;87.05;98753.03;4855669;29;20037;-90
2021/12/26 05:51:45;;;;;;;13.23;10.18;;;;;;;3.13;86.62;98762.63;4891477;29;20048;-90
2021/12/26 05:54:42;;;;;;;13.10;9.65;;;;;;;3.06;86.82;98750.88;4904412;29;20072;-90
2021/12/26 05:57:32;;;;;;;;;;;;;;;;;;;;;
2021/12/26 06:00:36;;;;;;;;;;;;;;;;;;;;;
2021/12/26 06:03:25;;;;;;;13.07;9.68;;;;;;;3.10;87.01;98753.16;4921656;29;20115;-90
2021/12/26 06:06:12;;;;;;;12.27;9.38;;;;;;;3.11;87.18;98752.19;4899089;29;20463;-90
2021/12/26 06:09:06;;;;;;;13.52;9.63;;;;;;;3.08;86.75;98751.59;4894558;29;20398;-91
2021/12/26 06:11:52;;;;;;;11.60;8.63;;;;;;;3.14;86.92;98756.38;4885473;29;20072;-90
2021/12/26 06:14:33;;;;;;;13.30;9.18;;;;;;;3.16;87.15;98746.53;4907535;29;20051;-93
2021/12/26 06:17:29;;;;;;;14.02;9.75;;;;;;;3.17;86.96;98749.06;4907403;29;20954;-91
2021/12/26 06:20:13;;;;;;;13.40;9.85;;;;;;;3.20;86.81;98757.69;4907631;29;20080;-90
2021/12/26 06:26:35;;;;;;;14.13;9.82;;;;;;;3.18;87.05;98755.19;4912045;29;20070;-91
2021/12/26 06:29:20;;;;;;;13.38;8.98;;;;;;;3.13;87.28;98757.34;4908540;29;20104;-91
2021/12/26 06:32:09;;;;;;;12.98;9.57;;;;;;;3.08;87.25;98746.31;4892561;29;20390;-90
2021/12/26 06:35:00;;;;;;;13.45;9.80;;;;;;;3.16;87.68;98750.00;4900262;29;20055;-90
2021/12/26 06:37:56;;;;;;;13.38;9.52;;;;;;;3.14;87.22;98745.81;4893786;29;20544;-90
2021/12/26 06:40:49;;;;;;;13.00;9.77;;;;;;;3.13;87.30;98746.78;4906174;29;20054;-90
2021/12/26 06:46:50;;;;;;;13.05;9.35;;;;;;;3.15;87.60;98744.84;4901694;29;20059;-90
2021/12/26 06:49:51;;;;;;;14.38;10.20;;;;;;;3.22;87.54;98735.47;4904361;29;20506;-90
2021/12/26 06:52:39;;;;;;;12.75;9.20;;;;;;;3.23;87.64;98739.81;4904958;29;20061;-91
2021/12/26 06:55:33;;;;;;;13.70;9.52;;;;;;;3.21;87.76;98741.72;4891226;29;20166;-91
2021/12/26 06:58:26;;;;;;;12.40;9.75;;;;;;;3.17;87.72;98740.28;4904608;29;20113;-90
2021/12/26 07:04:19;;;;;;;12.65;9.50;;;;;;;3.18;87.45;98741.97;4894596;29;20040;-91
2021/12/26 07:07:09;;;;;;;13.30;9.82;;;;;;;3.19;87.89;98748.09;4904948;29;20678;-90
2021/12/26 07:10:02;;;;;;;;;;;;;;;;;;;;;
2021/12/26 07:12:40;;;;;;;13.23;9.95;;;;;;;3.20;87.82;98742.69;4917643;29;20096;-91
2021/12/26 07:21:50;;;;;;;;;;;;;;;;;;;;;
2021/12/26 07:31:13;;;;;;;14.02;9.48;;;;;;;3.19;88.17;98737.53;4883839;29;20058;-93
2021/12/26 07:34:27;;;;;;;16.35;10.68;;;;;;;3.19;87.70;98748.09;4904507;29;20036;-91
2021/12/26 07:37:40;;;;;;;14.02;9.70;;;;;;;3.17;87.69;98738.50;4902289;29;20049;-92
2021/12/26 07:44:13;;;;;;;16.23;10.30;;;;;;;3.13;87.67;98750.25;4886136;29;20036;-91
2021/12/26 07:47:02;;;;;;;14.75;10.18;;;;;;;3.16;87.86;98744.72;4888142;29;20067;-90
2021/12/26 07:53:12;;;;;;;;;;;;;;;;;;;;;
2021/12/26 07:56:03;;;;;;;14.65;10.32;;;;;;;3.20;88.34;98744.50;4890876;29;21980;-90
2021/12/26 07:58:59;;;;;;;16.48;10.70;;;;;;;3.22;88.20;98756.59;4892097;29;20108;-91
2021/12/26 08:01:55;;;;;;;;;;;;;;;;;;;;;
2021/12/26 08:07:40;;;;;;;14.90;9.98;;;;;;;3.19;88.21;98751.56;4873340;29;20094;-90
2021/12/26 08:10:23;;;;;;;15.88;10.32;;;;;;;3.18;88.23;98752.53;4892270;29;20068;-92
2021/12/26 08:13:04;;;;;;;15.82;10.93;;;;;;;3.14;88.30;98759.03;4907159;29;20045;-90
2021/12/26 08:19:07;;;;;;;;;;;;;;;;;;;;;
2021/12/26 08:22:01;;;;;;;;;;;;;;;;;;;;;
2021/12/26 08:25:17;;;;;;;15.95;10.27;;;;;;;3.27;88.07;98772.09;4913640;29;20109;-91
2021/12/26 08:28:14;;;;;;;14.90;10.32;;;;;;;3.28;87.65;98764.03;4839414;29;20053;-91
2021/12/26 08:37:26;;;;;;;15.45;10.40;;;;;;;3.30;88.17;98763.91;4905383;29;20041;-92
2021/12/26 08:40:28;;;;;;;15.77;11.00;;;;;;;3.28;88.27;98757.94;4896512;29;20488;-91
2021/12/26 08:43:03;;;;;;;16.08;10.93;;;;;;;3.29;88.25;98757.81;4901639;29;20085;-90
2021/12/26 08:46:07;;;;;;;16.27;11.00;;;;;;;3.28;88.20;98756.13;4882242;29;20533;-90
2021/12/26 08:48:47;;;;;;;16.45;10.50;;;;;;;3.27;88.40;98748.31;4882028;29;20044;-91
2021/12/26 08:51:44;;;;;;;16.20;10.45;;;;;;;3.25;88.64;98751.09;4884840;29;20068;-91
2021/12/26 08:58:33;;;;;;;;;;;;;;;;;;;;;
2021/12/26 09:01:27;;;;;;;;;;;;;;;;;;;;;
2021/12/26 09:04:53;;;;;;;16.60;10.52;;;;;;;3.42;88.62;98770.91;4852862;29;20169;-90
2021/12/26 09:07:45;;;;;;;14.20;9.90;;;;;;;3.42;88.94;98757.69;4849788;29;20042;-90
2021/12/26 09:10:44;;;;;;;17.10;11.48;;;;;;;3.41;88.92;98759.50;4842556;29;20156;-91
2021/12/26 09:13:35;;;;;;;17.67;11.20;;;;;;;3.46;88.73;98761.75;4859312;29;20094;-90
2021/12/26 09:16:22;;;;;;;17.42;12.23;;;;;;;3.45;89.05;98758.28;4838219;29;20073;-91
2021/12/26 09:19:17;;;;;;;16.63;11.00;;;;;;;3.43;88.77;98757.56;4819278;29;20061;-89
2021/12/26 09:22:07;;;;;;;20.08;10.57;;;;;;;3.42;89.14;98757.69;4813694;29;20125;-90
2021/12/26 09:31:37;;;;;;;;;;;;;;;;;;;;;
2021/12/26 10:10:16;;;;;;;;;;;;;;;;;;;;;
2021/12/26 10:23:12;;;;;;;19.27;11.63;;;;;;;3.67;90.09;98719.53;4857983;29;20044;-91
2021/12/26 12:20:52;;;;;;;;;;;;;;;;;;;;;
2021/12/26 14:14:21;;;;;;;18.67;11.57;;;;;;;4.58;93.57;98589.28;4768361;30;20117;-91
2021/12/26 15:50:32;;;;;;;15.95;10.88;;;;;;;4.60;94.29;98559.06;4922938;29;20078;-90
2021/12/26 16:32:57;;;;;;;16.00;10.77;;;;;;;4.66;94.35;98553.22;4639502;31;20065;-90
2021/12/26 17:31:32;;;;;;;;;;;;;;;;;;;;;
2021/12/26 17:44:50;;;;;;;;;;;;;;;;;;;;;
2021/12/26 17:48:04;;;;;;;17.08;11.57;;;;;;;4.72;95.36;98547.38;4662556;30;20118;-90
2021/12/26 18:31:12;;;;;;;15.95;10.85;;;;;;;4.74;95.25;98526.09;4881591;29;20648;-85
2021/12/26 18:33:37;;;;;;;15.45;11.07;;;;;;;4.77;95.55;98530.28;4853906;29;20049;-85
2021/12/26 18:40:06;;;;;;;16.33;11.48;;;;;;;4.74;95.30;98528.72;4884905;29;20106;-85
2021/12/26 18:42:31;;;;;;;17.05;11.77;;;;;;;4.76;95.89;98526.78;4904859;29;20063;-86
2021/12/26 18:44:57;;;;;;;17.30;11.48;;;;;;;4.77;95.70;98530.28;4870842;29;20028;-86
2021/12/26 18:47:22;;;;;;;17.63;11.73;;;;;;;4.74;95.22;98529.56;4881728;29;20100;-86
2021/12/26 18:49:48;;;;;;;16.75;11.85;;;;;;;4.77;95.84;98517.03;4874021;29;20032;-85
2021/12/26 18:52:14;;;;;;;15.88;11.65;;;;;;;4.77;95.21;98525.81;4873742;29;20016;-86
2021/12/26 18:54:40;;;;;;;17.27;11.68;;;;;;;4.74;95.46;98526.09;4873720;29;20036;-85
2021/12/26 18:57:06;;;;;;;17.73;12.43;;;;;;;4.72;95.49;98525.34;4873370;29;20028;-84
2021/12/26 18:59:34;;;;;;;17.75;12.18;;;;;;;4.69;95.64;98526.47;4872378;29;20033;-85
2021/12/26 19:02:00;;;;;;;17.83;11.75;;;;;;;4.68;95.30;98524.78;4872976;29;20044;-85
2021/12/26 19:04:26;;;;;;;18.45;11.95;;;;;;;4.72;95.28;98530.66;4873486;29;20431;-85
2021/12/26 19:06:52;;;;;;;15.85;11.23;;;;;;;4.76;95.11;98531.25;4886754;29;20459;-86
2021/12/26 19:09:19;;;;;;;17.48;11.15;;;;;;;4.73;95.26;98532.34;4864704;29;20037;-86
2021/12/26 19:11:45;;;;;;;16.60;11.88;;;;;;;4.70;95.16;98525.50;4872406;29;20035;-86
2021/12/26 19:14:11;;;;;;;15.05;10.75;;;;;;;4.73;95.09;98512.00;4872946;29;20039;-84
2021/12/26 19:16:38;;;;;;;20.20;12.20;;;;;;;4.72;95.36;98520.06;4872992;29;20115;-86
2021/12/26 19:19:04;;;;;;;18.42;11.25;;;;;;;4.70;95.05;98522.84;4888763;29;20073;-88
2021/12/26 19:21:30;;;;;;;19.08;12.70;;;;;;;4.62;94.92;98520.03;4871890;29;20111;-87
2021/12/26 19:23:56;;;;;;;18.58;12.52;;;;;;;4.68;95.32;98514.19;4870093;29;20087;-88
2021/12/26 19:26:21;;;;;;;17.88;11.57;;;;;;;4.73;95.36;98516.47;4871571;29;20040;-88
2021/12/26 19:28:48;;;;;;;17.33;12.02;;;;;;;4.71;95.40;98508.63;4873095;29;20040;-89
2021/12/26 19:31:21;;;;;;;16.33;11.65;;;;;;;4.66;95.29;98513.50;4872344;29;20128;-87
2021/12/26 19:33:47;;;;;;;17.73;11.95;;;;;;;4.69;95.33;98512.38;4872352;29;20397;-87
2021/12/26 19:36:19;;;;;;;17.13;11.07;;;;;;;4.65;95.49;98511.81;4861924;29;20118;-88
2021/12/26 19:39:05;;;;;;;17.15;11.90;;;;;;;4.66;95.80;98512.66;4862648;29;20037;-87
2021/12/26 19:41:31;;;;;;;17.38;11.32;;;;;;;4.68;95.80;98508.91;4870243;29;20036;-88
2021/12/26 19:43:59;;;;;;;16.55;11.82;;;;;;;4.72;95.38;98509.47;4871805;29;20035;-89
2021/12/26 19:46:27;;;;;;;18.80;12.30;;;;;;;4.72;95.76;98515.59;4871144;29;20021;-87
2021/12/26 19:48:53;;;;;;;17.50;12.15;;;;;;;4.71;95.45;98505.97;4886702;29;20032;-87
2021/12/26 19:51:20;;;;;;;16.38;11.25;;;;;;;4.76;95.60;98507.41;4870021;29;20024;-89
2021/12/26 19:53:46;;;;;;;17.25;11.80;;;;;;;4.76;95.75;98512.72;4872273;29;20040;-87
2021/12/26 19:56:11;;;;;;;17.58;11.70;;;;;;;4.77;95.92;98515.22;4874680;29;20643;-87
2021/12/26 19:58:37;;;;;;;16.45;11.65;;;;;;;4.75;95.47;98511.88;4873860;29;20069;-87
2021/12/26 20:01:03;;;;;;;19.88;12.38;;;;;;;4.74;95.66;98511.03;4872182;29;20057;-88
2021/12/26 20:03:30;;;;;;;18.20;11.93;;;;;;;4.74;95.47;98510.19;4874226;29;20104;-88
2021/12/26 20:06:00;;;;;;;17.10;11.82;;;;;;;4.80;95.78;98511.47;4874400;29;20044;-87
2021/12/26 20:08:27;;;;;;;17.05;11.77;;;;;;;4.81;95.90;98513.13;4890105;29;20437;-86
2021/12/26 20:10:54;;;;;;;17.05;12.18;;;;;;;4.81;95.69;98513.13;4874475;29;20076;-87
2021/12/26 20:14:07;;;;;;;19.02;12.32;;;;;;;4.81;95.88;98505.19;4874579;29;20039;-85
2021/12/26 20:16:35;;;;;;;17.17;11.80;;;;;;;4.77;95.84;98509.09;4882485;29;20109;-86
2021/12/26 20:19:00;;;;;;;19.58;12.57;;;;;;;4.78;96.10;98510.75;4873747;29;20091;-87
2021/12/26 20:21:26;;;;;;;16.63;12.15;;;;;;;4.76;96.46;98508.25;4873263;29;20037;-86
2021/12/26 20:23:52;;;;;;;16.92;11.93;;;;;;;4.78;95.73;98508.09;4872383;29;20040;-87
2021/12/26 20:26:19;;;;;;;17.20;11.73;;;;;;;4.79;96.65;98504.50;4872259;29;20056;-86
2021/12/26 20:28:45;;;;;;;16.58;11.70;;;;;;;4.77;96.40;98507.28;4888065;29;20081;-87
2021/12/26 20:31:11;;;;;;;18.38;12.60;;;;;;;4.76;96.22;98502.94;4888027;29;20075;-89
2021/12/26 20:33:37;;;;;;;17.08;11.50;;;;;;;4.71;96.12;98505.16;4873415;29;20922;-86
2021/12/26 20:36:03;;;;;;;18.35;11.52;;;;;;;4.74;96.07;98487.22;4874078;29;20032;-87
2021/12/26 20:38:36;;;;;;;17.45;11.48;;;;;;;4.76;96.61;98494.16;4873393;29;20036;-86
2021/12/26 20:41:02;;;;;;;18.40;12.57;;;;;;;4.81;96.78;98489.31;4874638;29;20040;-86
2021/12/26 20:43:27;;;;;;;18.88;11.65;;;;;;;4.83;96.31;98490.00;4889978;29;20043;-86
2021/12/26 20:45:54;;;;;;;17.95;12.10;;;;;;;4.78;96.71;98486.94;4873035;29;20048;-86
2021/12/26 20:48:21;;;;;;;18.00;11.98;;;;;;;4.77;96.54;98480.78;4873706;29;20036;-85
2021/12/26 20:50:47;;;;;;;17.38;11.65;;;;;;;4.78;96.67;98481.63;4889750;29;20060;-87
2021/12/26 20:53:14;;;;;;;16.63;11.40;;;;;;;4.81;96.88;98494.59;4873548;29;20032;-86
2021/12/26 20:55:43;;;;;;;16.23;10.95;;;;;;;4.85;96.90;98490.69;4889019;29;20060;-87
2021/12/26 20:58:08;;;;;;;16.65;11.70;;;;;;;4.83;96.88;98487.34;4872183;29;20064;-85
2021/12/26 21:00:34;;;;;;;16.65;11.82;;;;;;;4.85;96.87;98488.88;4871362;29;20041;-86
2021/12/26 21:02:59;;;;;;;16.90;11.85;;;;;;;4.87;97.12;98481.63;4872552;29;20040;-87
2021/12/26 21:05:25;;;;;;;16.05;11.60;;;;;;;4.88;96.60;98482.47;4886120;29;20411;-86
2021/12/26 21:07:51;;;;;;;17.10;11.48;;;;;;;4.89;96.62;98477.03;4872230;29;20039;-86
2021/12/26 21:10:17;;;;;;;17.45;12.05;;;;;;;4.89;96.98;98474.38;4888706;29;20051;-87
2021/12/26 21:12:43;;;;;;;17.90;11.38;;;;;;;4.90;96.71;98472.56;4873091;29;20049;-87
2021/12/26 21:15:11;;;;;;;17.70;12.10;;;;;;;4.89;96.55;98473.56;4884945;29;20029;-87
2021/12/26 21:17:37;;;;;;;18.67;11.45;;;;;;;4.88;96.83;98478.00;4884268;29;20036;-87
2021/12/26 21:20:04;;;;;;;18.80;12.40;;;;;;;4.87;96.90;98471.03;4874075;29;20075;-86
2021/12/26 21:22:30;;;;;;;17.55;11.68;;;;;;;4.88;96.77;98467.41;4873887;29;20040;-87
2021/12/26 21:24:56;;;;;;;18.05;11.93;;;;;;;4.86;97.02;98465.88;4874272;29;20111;-86
2021/12/26 21:27:22;;;;;;;17.45;11.93;;;;;;;4.84;97.18;98466.03;4873538;29;21031;-86
2021/12/26 21:29:47;;;;;;;19.90;12.20;;;;;;;4.84;96.72;98470.47;4874228;29;20112;-86
2021/12/26 21:32:16;;;;;;;17.08;11.80;;;;;;;4.85;97.38;98472.16;4873935;29;20076;-85
2021/12/26 21:34:43;;;;;;;18.20;12.10;;;;;;;4.84;97.18;98465.19;4875155;29;20042;-87
2021/12/26 21:37:08;;;;;;;16.38;11.68;;;;;;;4.86;97.67;98463.25;4871903;29;20651;-85
2021/12/26 21:39:34;;;;;;;17.90;11.88;;;;;;;4.85;97.50;98464.22;4870975;29;20060;-86
2021/12/26 21:42:04;;;;;;;16.42;11.50;;;;;;;4.87;97.42;98472.84;4871314;29;20077;-86
2021/12/26 21:44:29;;;;;;;16.38;11.75;;;;;;;4.88;97.74;98470.06;4870143;29;20047;-86
2021/12/26 21:46:55;;;;;;;16.63;10.95;;;;;;;4.89;97.39;98460.31;4873078;29;20037;-86
2021/12/26 21:49:20;;;;;;;17.08;11.10;;;;;;;4.90;97.48;98464.63;4874551;29;20033;-87
2021/12/26 21:51:45;;;;;;;18.33;11.60;;;;;;;4.89;97.78;98460.31;4873149;29;20069;-86
2021/12/26 21:54:11;;;;;;;16.73;11.82;;;;;;;4.91;97.93;98461.00;4874786;29;20047;-86
2021/12/26 21:56:40;;;;;;;18.42;12.10;;;;;;;4.92;97.75;98462.69;4874302;29;20036;-85
2021/12/26 21:59:06;;;;;;;15.88;11.77;;;;;;;4.93;97.76;98459.88;4889558;29;20032;-85
2021/12/26 22:01:31;;;;;;;16.13;11.20;;;;;;;4.92;97.56;98457.38;4873736;29;20051;-87
2021/12/26 22:04:03;;;;;;;18.27;11.63;;;;;;;4.91;97.72;98461.84;4873790;29;20086;-84
2021/12/26 22:06:29;;;;;;;18.58;11.73;;;;;;;4.94;97.63;98455.44;4874216;29;20103;-87
2021/12/26 22:08:57;;;;;;;16.52;11.63;;;;;;;4.96;97.55;98454.31;4874008;29;20143;-87
2021/12/26 22:11:23;;;;;;;17.05;11.95;;;;;;;4.96;97.65;98454.31;4874993;29;20043;-86
2021/12/26 22:13:48;;;;;;;17.98;12.15;;;;;;;4.94;97.78;98453.63;4873936;29;20414;-86
2021/12/26 22:16:13;;;;;;;17.63;11.52;;;;;;;4.94;98.18;98458.91;4873605;29;20036;-86
2021/12/26 22:18:39;;;;;;;15.20;11.00;;;;;;;4.95;97.85;98454.44;4874425;29;20123;-87
2021/12/26 22:21:05;;;;;;;16.77;11.27;;;;;;;4.96;98.29;98454.31;4872746;29;20463;-86
2021/12/26 22:23:34;;;;;;;16.50;11.15;;;;;;;4.95;97.92;98452.63;4874017;29;20037;-87
2021/12/26 22:25:59;;;;;;;18.55;12.05;;;;;;;4.95;98.24;98450.00;4873770;29;20490;-85
2021/12/26 22:28:28;;;;;;;16.65;11.63;;;;;;;4.96;98.03;98450.81;4874254;29;20044;-85
2021/12/26 22:30:53;;;;;;;17.63;11.63;;;;;;;4.94;98.12;98461.56;4888340;29;20064;-86
2021/12/26 22:33:19;;;;;;;16.27;10.40;;;;;;;4.94;98.70;98453.63;4873644;29;20044;-85
2021/12/26 22:35:44;;;;;;;15.43;10.48;;;;;;;4.95;98.18;98452.63;4873526;29;20051;-87
2021/12/26 22:38:11;;;;;;;15.95;10.93;;;;;;;4.97;98.21;98449.84;4872502;29;20047;-86
2021/12/26 22:40:37;;;;;;;16.30;11.15;;;;;;;4.99;98.53;98450.53;4873343;29;20039;-85
2021/12/26 22:43:02;;;;;;;17.08;11.45;;;;;;;4.97;98.64;98440.09;4873583;29;20063;-85
2021/12/26 22:45:28;;;;;;;17.52;11.25;;;;;;;4.99;98.61;98447.91;4873478;29;20828;-87
2021/12/26 22:47:54;;;;;;;15.23;10.75;;;;;;;4.99;98.73;98445.25;4873043;29;20029;-85
2021/12/26 22:50:20;;;;;;;14.45;10.15;;;;;;;5.01;98.44;98448.59;4873494;29;20061;-86
2021/12/26 22:52:46;;;;;;;16.13;11.00;;;;;;;5.01;98.39;98443.28;4872734;29;20135;-86
2021/12/26 22:55:12;;;;;;;16.65;10.57;;;;;;;5.01;98.05;98444.13;4873416;29;20044;-86
2021/12/26 22:57:38;;;;;;;16.90;11.30;;;;;;;5.03;98.26;98444.00;4889273;29;20068;-87
2021/12/26 23:00:17;;;;;;;17.80;10.93;;;;;;;5.03;98.55;98444.00;4873223;29;20076;-86
2021/12/26 23:02:43;;;;;;;15.73;10.55;;;;;;;5.01;98.90;98446.78;4874161;29;20072;-87
2021/12/26 23:05:09;;;;;;;15.68;10.98;;;;;;;5.02;98.66;98445.81;4873296;29;20037;-87
2021/12/26 23:07:34;;;;;;;15.30;10.30;;;;;;;5.04;98.63;98453.59;4873413;29;20090;-87
2021/12/26 23:10:01;;;;;;;15.13;10.07;;;;;;;5.04;98.54;98449.16;4872828;29;20060;-87
2021/12/26 23:12:27;;;;;;;14.50;10.02;;;;;;;5.06;98.54;98449.84;4872981;29;20040;-87
2021/12/26 23:14:53;;;;;;;16.10;11.77;;;;;;;5.07;98.52;98450.69;4873305;29;20056;-86
2021/12/26 23:17:18;;;;;;;17.25;11.35;;;;;;;5.09;98.56;98447.88;4872504;29;20033;-86
2021/12/26 23:19:44;;;;;;;14.80;9.88;;;;;;;5.08;98.53;98444.41;4873372;29;20051;-87
2021/12/26 23:22:09;;;;;;;14.60;10.23;;;;;;;5.09;98.70;98445.25;4873202;29;20041;-87
2021/12/26 23:24:35;;;;;;;15.18;10.63;;;;;;;5.10;98.34;98444.25;4872653;29;20088;-86
2021/12/26 23:27:01;;;;;;;12.98;9.93;;;;;;;5.07;98.55;98442.72;4872305;29;20072;-87
2021/12/26 23:29:27;;;;;;;14.40;9.38;;;;;;;5.09;98.70;98437.28;4875161;29;20041;-87
2021/12/26 23:31:52;;;;;;;17.65;10.38;;;;;;;5.11;99.05;98441.47;4875846;29;20379;-88